La rose des vents
Donnes mto: Semaine 05/11/07 - 11/11/07 (S 45)
Date Horaire Temp. E. Hum. E. P.atmo. Pluie Vent 1mn Direction Ensoleilleme Ev.Tr. Solaire P. de rose Temp au vent Rafales
05/11/2007 00:00 12,4 C 69 % 1017,0 hPa 0,0 l/m 4,9 km/h (1 Bft) O-NO 0,00 h 0,025 mm 0 W/m 6,8 C 12,4 C 7,8 km/h (2 Bft)
05/11/2007 01:00 12,4 C 66 % 1017,1 hPa 0,0 l/m 3,7 km/h (1 Bft) NO 0,00 h 0,051 mm 0 W/m 6,2 C 12,4 C 5,8 km/h (2 Bft)
05/11/2007 02:00 12,5 C 65 % 1017,0 hPa 0,0 l/m 4,2 km/h (1 Bft) O-NO 0,00 h 0,051 mm 0 W/m 6,1 C 12,5 C 5,9 km/h (2 Bft)
05/11/2007 03:00 12,3 C 64 % 1017,4 hPa 0,0 l/m 4,4 km/h (1 Bft) O-NO 0,00 h 0,051 mm 0 W/m 5,6 C 12,3 C 6,0 km/h (2 Bft)
05/11/2007 04:00 12,1 C 64 % 1017,6 hPa 0,0 l/m 4,8 km/h (1 Bft) O-NO 0,00 h 0,051 mm 0 W/m 5,5 C 12,1 C 6,1 km/h (2 Bft)
05/11/2007 05:00 12,0 C 64 % 1018,0 hPa 0,0 l/m 3,5 km/h (1 Bft) NO 0,00 h 0,051 mm 0 W/m 5,4 C 12,0 C 4,7 km/h (1 Bft)
05/11/2007 06:00 11,9 C 64 % 1018,3 hPa 0,0 l/m 4,5 km/h (1 Bft) NO 0,00 h 0,051 mm 0 W/m 5,3 C 11,9 C 5,7 km/h (1 Bft)
05/11/2007 07:00 12,1 C 63 % 1018,8 hPa 0,0 l/m 4,6 km/h (1 Bft) NO 0,42 h 0,025 mm 26 W/m 5,2 C 12,1 C 5,9 km/h (2 Bft)
05/11/2007 08:00 13,3 C 59 % 1019,5 hPa 0,0 l/m 2,9 km/h (1 Bft) NO 0,72 h 0,051 mm 158 W/m 5,4 C 13,3 C 4,5 km/h (1 Bft)
05/11/2007 09:00 15,9 C 54 % 1019,7 hPa 0,0 l/m 0,1 km/h (0 Bft) NO 0,92 h 0,102 mm 275 W/m 6,7 C 15,9 C 0,6 km/h (0 Bft)
05/11/2007 10:00 17,8 C 53 % 1020,1 hPa 0,0 l/m 3,8 km/h (1 Bft) E-SE 1,00 h 0,152 mm 402 W/m 8,2 C 17,8 C 5,7 km/h (1 Bft)
05/11/2007 11:00 18,5 C 55 % 1020,5 hPa 0,0 l/m 4,7 km/h (1 Bft) SE 1,00 h 0,254 mm 471 W/m 9,3 C 18,5 C 8,0 km/h (2 Bft)
05/11/2007 12:00 18,8 C 57 % 1020,1 hPa 0,0 l/m 4,9 km/h (1 Bft) E-SE 1,00 h 0,305 mm 484 W/m 10,2 C 18,8 C 7,8 km/h (2 Bft)
05/11/2007 13:00 19,1 C 58 % 1019,8 hPa 0,0 l/m 5,5 km/h (1 Bft) E 1,00 h 0,305 mm 440 W/m 10,7 C 19,1 C 8,7 km/h (2 Bft)
05/11/2007 14:00 18,6 C 61 % 1019,8 hPa 0,0 l/m 5,1 km/h (1 Bft) E 1,00 h 0,279 mm 342 W/m 11,0 C 18,6 C 9,8 km/h (2 Bft)
05/11/2007 15:00 17,3 C 74 % 1020,2 hPa 0,0 l/m 5,5 km/h (1 Bft) E 1,00 h 0,229 mm 220 W/m 12,6 C 17,3 C 10,0 km/h (2 Bft)
05/11/2007 16:00 16,1 C 79 % 1020,6 hPa 0,0 l/m 2,2 km/h (1 Bft) E 0,48 h 0,152 mm 66 W/m 12,5 C 16,1 C 4,2 km/h (1 Bft)
05/11/2007 17:00 14,4 C 85 % 1021,1 hPa 0,0 l/m 2,1 km/h (1 Bft) E 0,15 h 0,051 mm 11 W/m 11,9 C 14,4 C 3,5 km/h (1 Bft)
05/11/2007 18:00 13,3 C 87 % 1021,7 hPa 0,0 l/m 0,2 km/h (0 Bft) E 0,00 h 0,000 mm 0 W/m 11,2 C 13,3 C 1,2 km/h (1 Bft)
05/11/2007 19:00 12,6 C 88 % 1021,9 hPa 0,0 l/m 2,6 km/h (1 Bft) NO 0,00 h 0,025 mm 0 W/m 10,6 C 12,6 C 4,7 km/h (1 Bft)
05/11/2007 20:00 12,3 C 88 % 1021,9 hPa 0,0 l/m 3,8 km/h (1 Bft) NO 0,00 h 0,025 mm 0 W/m 10,4 C 12,3 C 5,4 km/h (1 Bft)
05/11/2007 21:00 12,1 C 85 % 1021,8 hPa 0,0 l/m 3,7 km/h (1 Bft) NO 0,00 h 0,025 mm 0 W/m 9,6 C 12,1 C 5,2 km/h (1 Bft)
05/11/2007 22:00 12,1 C 81 % 1021,8 hPa 0,0 l/m 3,3 km/h (1 Bft) NO 0,00 h 0,025 mm 0 W/m 8,9 C 12,1 C 4,6 km/h (1 Bft)
05/11/2007 23:00 11,8 C 80 % 1021,7 hPa 0,0 l/m 3,7 km/h (1 Bft) O-NO 0,00 h 0,025 mm 0 W/m 8,5 C 11,8 C 6,0 km/h (2 Bft)
06/11/2007 00:00 11,4 C 81 % 1021,7 hPa 0,0 l/m 3,2 km/h (1 Bft) NO 0,00 h 0,025 mm 0 W/m 8,3 C 11,4 C 5,5 km/h (1 Bft)
06/11/2007 01:00 11,4 C 81 % 1021,7 hPa 0,0 l/m 4,1 km/h (1 Bft) O-NO 0,00 h 0,025 mm 0 W/m 8,2 C 11,4 C 6,4 km/h (2 Bft)
06/11/2007 02:00 11,4 C 78 % 1021,5 hPa 0,0 l/m 4,6 km/h (1 Bft) NO 0,00 h 0,025 mm 0 W/m 7,7 C 11,4 C 6,3 km/h (2 Bft)
06/11/2007 03:00 11,3 C 79 % 1021,0 hPa 0,0 l/m 5,0 km/h (1 Bft) NO 0,00 h 0,025 mm 0 W/m 7,8 C 11,3 C 6,9 km/h (2 Bft)
06/11/2007 04:00 11,2 C 80 % 1020,3 hPa 0,0 l/m 5,4 km/h (1 Bft) NO 0,00 h 0,025 mm 0 W/m 7,8 C 11,2 C 7,9 km/h (2 Bft)
06/11/2007 05:00 10,9 C 81 % 1019,8 hPa 0,0 l/m 4,7 km/h (1 Bft) NO 0,00 h 0,025 mm 0 W/m 7,8 C 10,9 C 6,6 km/h (2 Bft)
06/11/2007 06:00 10,7 C 81 % 1019,6 hPa 0,0 l/m 4,4 km/h (1 Bft) NO 0,00 h 0,025 mm 0 W/m 7,6 C 10,7 C 7,0 km/h (2 Bft)
06/11/2007 07:00 10,9 C 81 % 1019,4 hPa 0,0 l/m 3,9 km/h (1 Bft) NO 0,60 h 0,025 mm 38 W/m 7,7 C 10,9 C 6,5 km/h (2 Bft)
06/11/2007 08:00 12,2 C 77 % 1019,2 hPa 0,0 l/m 2,3 km/h (1 Bft) NO 0,62 h 0,025 mm 145 W/m 8,2 C 12,2 C 3,8 km/h (1 Bft)
06/11/2007 09:00 15,0 C 67 % 1018,4 hPa 0,0 l/m 0,8 km/h (0 Bft) NO 1,00 h 0,076 mm 292 W/m 8,9 C 15,0 C 2,2 km/h (1 Bft)
06/11/2007 10:00 16,1 C 65 % 1017,8 hPa 0,0 l/m 4,4 km/h (1 Bft) E 1,00 h 0,152 mm 342 W/m 9,6 C 16,1 C 6,5 km/h (2 Bft)
06/11/2007 11:00 17,1 C 63 % 1017,1 hPa 0,0 l/m 5,2 km/h (1 Bft) E 0,93 h 0,203 mm 379 W/m 10,1 C 17,1 C 8,0 km/h (2 Bft)
06/11/2007 12:00 17,4 C 63 % 1016,0 hPa 0,0 l/m 4,9 km/h (1 Bft) E 0,83 h 0,229 mm 391 W/m 10,3 C 17,4 C 7,8 km/h (2 Bft)
06/11/2007 13:00 17,6 C 66 % 1015,4 hPa 0,0 l/m 6,0 km/h (2 Bft) E 0,93 h 0,254 mm 400 W/m 11,2 C 17,6 C 10,7 km/h (2 Bft)
06/11/2007 14:00 17,3 C 70 % 1014,8 hPa 0,0 l/m 3,8 km/h (1 Bft) E-SE 0,85 h 0,254 mm 316 W/m 11,8 C 17,3 C 7,2 km/h (2 Bft)
06/11/2007 15:00 16,4 C 75 % 1015,2 hPa 0,0 l/m 10,2 km/h (2 Bft) E-NE 0,28 h 0,178 mm 130 W/m 11,9 C 16,4 C 14,7 km/h (3 Bft)
06/11/2007 16:00 14,9 C 80 % 1015,5 hPa 0,0 l/m 10,7 km/h (2 Bft) E-NE 0,00 h 0,127 mm 35 W/m 11,5 C 14,9 C 14,9 km/h (3 Bft)
06/11/2007 17:00 13,4 C 84 % 1016,1 hPa 0,0 l/m 3,5 km/h (1 Bft) E-NE 0,00 h 0,051 mm 8 W/m 10,8 C 13,4 C 5,3 km/h (1 Bft)
06/11/2007 18:00 13,3 C 85 % 1016,7 hPa 0,0 l/m 1,9 km/h (1 Bft) N 0,00 h 0,025 mm 0 W/m 10,8 C 13,3 C 3,3 km/h (1 Bft)
06/11/2007 19:00 12,9 C 85 % 1017,5 hPa 0,0 l/m 4,6 km/h (1 Bft) O-NO 0,00 h 0,025 mm 0 W/m 10,4 C 12,9 C 6,8 km/h (2 Bft)
06/11/2007 20:00 12,0 C 87 % 1018,1 hPa 0,0 l/m 7,2 km/h (2 Bft) O-NO 0,00 h 0,025 mm 0 W/m 10,0 C 12,0 C 10,1 km/h (2 Bft)
06/11/2007 21:00 11,4 C 87 % 1018,7 hPa 0,0 l/m 4,8 km/h (1 Bft) O-NO 0,00 h 0,025 mm 0 W/m 9,4 C 11,4 C 6,8 km/h (2 Bft)
06/11/2007 22:00 11,4 C 86 % 1019,1 hPa 0,0 l/m 5,6 km/h (1 Bft) O-NO 0,00 h 0,025 mm 0 W/m 9,1 C 11,4 C 7,7 km/h (2 Bft)
06/11/2007 23:00 10,9 C 81 % 1019,3 hPa 0,0 l/m 4,9 km/h (1 Bft) O-NO 0,00 h 0,025 mm 0 W/m 7,7 C 10,9 C 6,6 km/h (2 Bft)
07/11/2007 00:00 10,4 C 82 % 1020,0 hPa 0,0 l/m 7,2 km/h (2 Bft) O-NO 0,00 h 0,025 mm 0 W/m 7,4 C 10,4 C 10,3 km/h (2 Bft)
07/11/2007 01:00 10,6 C 81 % 1019,8 hPa 0,0 l/m 9,5 km/h (2 Bft) O 0,00 h 0,025 mm 0 W/m 7,5 C 10,6 C 13,6 km/h (3 Bft)
07/11/2007 02:00 11,0 C 78 % 1019,9 hPa 0,0 l/m 9,2 km/h (2 Bft) O 0,00 h 0,025 mm 0 W/m 7,3 C 11,0 C 13,0 km/h (3 Bft)
07/11/2007 03:00 10,4 C 79 % 1020,2 hPa 0,0 l/m 6,3 km/h (2 Bft) O-NO 0,00 h 0,051 mm 0 W/m 7,0 C 10,4 C 8,5 km/h (2 Bft)
07/11/2007 04:00 9,6 C 78 % 1020,6 hPa 0,0 l/m 6,1 km/h (2 Bft) O-NO 0,00 h 0,025 mm 0 W/m 6,0 C 8,9 C 8,3 km/h (2 Bft)
07/11/2007 05:00 9,8 C 76 % 1021,0 hPa 0,0 l/m 3,9 km/h (1 Bft) N-NO 0,00 h 0,025 mm 0 W/m 5,8 C 9,7 C 5,6 km/h (1 Bft)
07/11/2007 06:00 9,4 C 74 % 1021,6 hPa 0,0 l/m 3,1 km/h (1 Bft) N-NO 0,00 h 0,025 mm 0 W/m 5,0 C 9,3 C 4,5 km/h (1 Bft)
07/11/2007 07:00 9,8 C 67 % 1021,8 hPa 0,0 l/m 3,6 km/h (1 Bft) O-NO 0,47 h 0,025 mm 29 W/m 3,8 C 9,6 C 5,2 km/h (1 Bft)
07/11/2007 08:00 11,2 C 57 % 1022,4 hPa 0,0 l/m 1,9 km/h (1 Bft) NO 1,00 h 0,025 mm 147 W/m 3,1 C 11,2 C 3,1 km/h (1 Bft)
07/11/2007 09:00 14,6 C 49 % 1022,6 hPa 0,0 l/m 1,6 km/h (1 Bft) S-SO 1,00 h 0,076 mm 289 W/m 3,9 C 14,6 C 2,7 km/h (1 Bft)
07/11/2007 10:00 16,2 C 47 % 1021,9 hPa 0,0 l/m 7,0 km/h (2 Bft) S-SO 1,00 h 0,178 mm 399 W/m 4,8 C 16,2 C 10,1 km/h (2 Bft)
07/11/2007 11:00 17,1 C 43 % 1021,5 hPa 0,0 l/m 13,3 km/h (3 Bft) S-SO 0,92 h 0,279 mm 410 W/m 4,3 C 17,1 C 18,9 km/h (3 Bft)
07/11/2007 12:00 18,2 C 42 % 1020,7 hPa 0,0 l/m 13,3 km/h (3 Bft) SO 1,00 h 0,330 mm 457 W/m 5,0 C 18,2 C 19,2 km/h (3 Bft)
07/11/2007 13:00 18,0 C 39 % 1019,7 hPa 0,0 l/m 20,3 km/h (4 Bft) SO 0,78 h 0,356 mm 367 W/m 3,8 C 18,0 C 26,5 km/h (4 Bft)
07/11/2007 14:00 18,0 C 37 % 1019,0 hPa 0,0 l/m 23,1 km/h (4 Bft) SO 0,73 h 0,381 mm 253 W/m 3,0 C 18,0 C 30,2 km/h (5 Bft)
07/11/2007 15:00 18,2 C 34 % 1017,9 hPa 0,0 l/m 19,5 km/h (3 Bft) SO 0,53 h 0,330 mm 186 W/m 2,0 C 18,2 C 26,2 km/h (4 Bft)
07/11/2007 16:00 18,2 C 31 % 1017,0 hPa 0,0 l/m 25,9 km/h (4 Bft) SO 0,85 h 0,279 mm 110 W/m 0,6 C 18,2 C 33,6 km/h (5 Bft)
07/11/2007 17:00 16,4 C 36 % 1016,5 hPa 0,0 l/m 21,0 km/h (4 Bft) O-SO 0,02 h 0,305 mm 8 W/m 1,1 C 16,4 C 27,9 km/h (4 Bft)
07/11/2007 18:00 15,2 C 42 % 1016,8 hPa 0,0 l/m 15,2 km/h (3 Bft) O-SO 0,00 h 0,178 mm 0 W/m 2,5 C 15,2 C 21,0 km/h (4 Bft)
07/11/2007 19:00 14,0 C 47 % 1016,7 hPa 0,0 l/m 8,4 km/h (2 Bft) O-NO 0,00 h 0,127 mm 0 W/m 2,8 C 14,0 C 11,9 km/h (2 Bft)
07/11/2007 20:00 12,1 C 56 % 1016,6 hPa 0,0 l/m 5,3 km/h (1 Bft) N-NE 0,00 h 0,076 mm 0 W/m 3,5 C 12,1 C 8,1 km/h (2 Bft)
07/11/2007 21:00 11,8 C 60 % 1016,5 hPa 0,0 l/m 6,4 km/h (2 Bft) N-NE 0,00 h 0,051 mm 0 W/m 4,3 C 11,8 C 9,5 km/h (2 Bft)
07/11/2007 22:00 11,1 C 62 % 1016,3 hPa 0,0 l/m 4,9 km/h (1 Bft) N-NE 0,00 h 0,051 mm 0 W/m 4,0 C 11,1 C 7,2 km/h (2 Bft)
07/11/2007 23:00 10,4 C 63 % 1016,2 hPa 0,0 l/m 5,7 km/h (1 Bft) N 0,00 h 0,051 mm 0 W/m 3,7 C 10,3 C 8,5 km/h (2 Bft)
08/11/2007 00:00 10,0 C 65 % 1016,3 hPa 0,0 l/m 4,2 km/h (1 Bft) N 0,00 h 0,051 mm 0 W/m 3,8 C 9,9 C 6,6 km/h (2 Bft)
08/11/2007 01:00 10,1 C 68 % 1016,0 hPa 0,0 l/m 2,3 km/h (1 Bft) N 0,00 h 0,051 mm 0 W/m 4,5 C 10,1 C 4,8 km/h (1 Bft)
08/11/2007 02:00 10,2 C 70 % 1015,7 hPa 0,0 l/m 2,5 km/h (1 Bft) N 0,00 h 0,025 mm 0 W/m 5,0 C 10,2 C 5,0 km/h (1 Bft)
08/11/2007 03:00 9,9 C 75 % 1015,3 hPa 0,0 l/m 2,7 km/h (1 Bft) N 0,00 h 0,025 mm 0 W/m 5,6 C 9,9 C 5,4 km/h (1 Bft)
08/11/2007 04:00 10,0 C 76 % 1015,3 hPa 0,0 l/m 3,1 km/h (1 Bft) N 0,00 h 0,025 mm 0 W/m 6,0 C 10,0 C 5,7 km/h (1 Bft)
08/11/2007 05:00 9,6 C 78 % 1015,4 hPa 0,0 l/m 2,6 km/h (1 Bft) N 0,00 h 0,025 mm 0 W/m 6,0 C 9,6 C 5,1 km/h (1 Bft)
08/11/2007 06:00 9,6 C 81 % 1015,5 hPa 0,0 l/m 2,9 km/h (1 Bft) N 0,00 h 0,025 mm 0 W/m 6,4 C 9,5 C 5,1 km/h (1 Bft)
08/11/2007 07:00 10,0 C 79 % 1015,8 hPa 0,0 l/m 3,4 km/h (1 Bft) N-NO 0,57 h 0,000 mm 30 W/m 6,4 C 9,9 C 5,4 km/h (1 Bft)
08/11/2007 08:00 11,7 C 69 % 1016,6 hPa 0,0 l/m 3,2 km/h (1 Bft) N-NO 1,00 h 0,025 mm 145 W/m 6,1 C 11,7 C 5,5 km/h (1 Bft)
08/11/2007 09:00 14,3 C 61 % 1016,8 hPa 0,0 l/m 1,7 km/h (1 Bft) N 0,65 h 0,076 mm 229 W/m 6,9 C 14,3 C 4,3 km/h (1 Bft)
08/11/2007 10:00 16,3 C 63 % 1016,7 hPa 0,0 l/m 7,0 km/h (2 Bft) NE 1,00 h 0,127 mm 391 W/m 9,3 C 16,3 C 10,3 km/h (2 Bft)
08/11/2007 11:00 17,2 C 62 % 1016,5 hPa 0,0 l/m 5,8 km/h (2 Bft) E 1,00 h 0,254 mm 452 W/m 9,8 C 17,2 C 9,3 km/h (2 Bft)
08/11/2007 12:00 17,2 C 64 % 1016,4 hPa 0,0 l/m 6,0 km/h (2 Bft) E 0,82 h 0,279 mm 410 W/m 10,3 C 17,2 C 9,8 km/h (2 Bft)
08/11/2007 13:00 17,7 C 64 % 1015,8 hPa 0,0 l/m 6,3 km/h (2 Bft) E 1,00 h 0,254 mm 477 W/m 10,7 C 17,7 C 10,9 km/h (2 Bft)
08/11/2007 14:00 16,5 C 66 % 1015,4 hPa 0,0 l/m 5,7 km/h (1 Bft) S-SE 0,08 h 0,305 mm 170 W/m 10,2 C 16,5 C 8,9 km/h (2 Bft)
08/11/2007 15:00 15,7 C 72 % 1015,2 hPa 0,0 l/m 2,9 km/h (1 Bft) E-SE 0,03 h 0,127 mm 81 W/m 10,7 C 15,7 C 5,2 km/h (1 Bft)
08/11/2007 16:00 15,2 C 74 % 1014,9 hPa 0,0 l/m 8,1 km/h (2 Bft) S-SO 0,00 h 0,051 mm 27 W/m 10,5 C 15,2 C 11,0 km/h (2 Bft)
08/11/2007 17:00 14,5 C 78 % 1014,8 hPa 0,0 l/m 3,9 km/h (1 Bft) SO 0,00 h 0,051 mm 5 W/m 10,6 C 14,5 C 5,5 km/h (1 Bft)
08/11/2007 18:00 14,0 C 79 % 1014,9 hPa 0,0 l/m 1,2 km/h (1 Bft) SO 0,00 h 0,025 mm 0 W/m 10,5 C 14,0 C 2,3 km/h (1 Bft)
08/11/2007 19:00 13,8 C 80 % 1014,9 hPa 0,0 l/m 0,8 km/h (0 Bft) SO 0,00 h 0,025 mm 0 W/m 10,4 C 13,8 C 1,6 km/h (1 Bft)
08/11/2007 20:00 13,6 C 81 % 1014,4 hPa 0,0 l/m 4,1 km/h (1 Bft) O 0,00 h 0,025 mm 0 W/m 10,4 C 13,6 C 5,6 km/h (1 Bft)
08/11/2007 21:00 13,5 C 82 % 1014,3 hPa 0,0 l/m 7,5 km/h (2 Bft) O 0,00 h 0,025 mm 0 W/m 10,5 C 13,5 C 10,2 km/h (2 Bft)
08/11/2007 22:00 12,7 C 83 % 1013,4 hPa 0,0 l/m 8,4 km/h (2 Bft) O 0,00 h 0,025 mm 0 W/m 10,0 C 12,7 C 12,0 km/h (2 Bft)
08/11/2007 23:00 11,7 C 79 % 1012,5 hPa 0,0 l/m 10,3 km/h (2 Bft) O 0,00 h 0,025 mm 0 W/m 8,1 C 11,7 C 14,8 km/h (3 Bft)
09/11/2007 00:00 10,8 C 75 % 1011,5 hPa 0,0 l/m 4,3 km/h (1 Bft) NO 0,00 h 0,051 mm 0 W/m 6,5 C 10,8 C 5,9 km/h (2 Bft)
09/11/2007 01:00 10,1 C 76 % 1010,4 hPa 0,0 l/m 1,8 km/h (1 Bft) NO 0,00 h 0,025 mm 0 W/m 6,0 C 10,1 C 3,0 km/h (1 Bft)
09/11/2007 02:00 9,7 C 77 % 1009,5 hPa 0,0 l/m 5,4 km/h (1 Bft) O-NO 0,00 h 0,025 mm 0 W/m 5,9 C 9,3 C 6,9 km/h (2 Bft)
09/11/2007 03:00 9,0 C 77 % 1008,4 hPa 0,0 l/m 5,0 km/h (1 Bft) O-NO 0,00 h 0,025 mm 0 W/m 5,1 C 8,5 C 7,6 km/h (2 Bft)
09/11/2007 04:00 8,8 C 77 % 1006,9 hPa 0,0 l/m 4,2 km/h (1 Bft) N-NO 0,00 h 0,025 mm 0 W/m 4,9 C 8,4 C 6,0 km/h (2 Bft)
09/11/2007 05:00 8,2 C 74 % 1007,3 hPa 0,0 l/m 3,5 km/h (1 Bft) O-NO 0,00 h 0,025 mm 0 W/m 3,8 C 8,0 C 5,2 km/h (1 Bft)
09/11/2007 06:00 8,5 C 71 % 1007,6 hPa 0,0 l/m 6,8 km/h (2 Bft) O 0,00 h 0,025 mm 0 W/m 3,5 C 7,6 C 9,1 km/h (2 Bft)
09/11/2007 07:00 9,9 C 75 % 1007,9 hPa 0,0 l/m 10,0 km/h (2 Bft) O-SO 0,50 h 0,025 mm 29 W/m 5,7 C 9,1 C 14,0 km/h (3 Bft)
09/11/2007 08:00 12,1 C 74 % 1008,4 hPa 0,0 l/m 3,8 km/h (1 Bft) O-NO 1,00 h 0,051 mm 145 W/m 7,6 C 12,1 C 5,9 km/h (2 Bft)
09/11/2007 09:00 14,8 C 63 % 1008,0 hPa 0,0 l/m 2,0 km/h (1 Bft) NE 1,00 h 0,076 mm 290 W/m 7,7 C 14,8 C 3,5 km/h (1 Bft)
09/11/2007 10:00 16,4 C 55 % 1007,2 hPa 0,0 l/m 4,2 km/h (1 Bft) E 1,00 h 0,178 mm 401 W/m 7,4 C 16,4 C 6,9 km/h (2 Bft)
09/11/2007 11:00 18,7 C 34 % 1006,3 hPa 0,0 l/m 15,9 km/h (3 Bft) O-NO 1,00 h 0,254 mm 477 W/m 1,1 C 18,7 C 23,0 km/h (4 Bft)
09/11/2007 12:00 20,6 C 17 % 1005,0 hPa 0,0 l/m 19,6 km/h (3 Bft) O-NO 1,00 h 0,432 mm 493 W/m -5,6 C 20,6 C 28,4 km/h (4 Bft)
09/11/2007 13:00 20,9 C 16 % 1004,6 hPa 0,0 l/m 15,9 km/h (3 Bft) O-NO 1,00 h 0,533 mm 453 W/m -6,1 C 20,9 C 23,9 km/h (4 Bft)
09/11/2007 14:00 20,2 C 15 % 1004,7 hPa 0,0 l/m 19,2 km/h (3 Bft) O-NO 1,00 h 0,457 mm 360 W/m -7,0 C 20,2 C 27,5 km/h (4 Bft)
09/11/2007 15:00 19,0 C 15 % 1005,0 hPa 0,0 l/m 25,0 km/h (4 Bft) O-NO 1,00 h 0,432 mm 228 W/m -7,9 C 19,0 C 34,9 km/h (5 Bft)
09/11/2007 16:00 17,7 C 15 % 1006,4 hPa 0,0 l/m 18,6 km/h (3 Bft) NO 0,85 h 0,432 mm 80 W/m -9,2 C 17,7 C 27,4 km/h (4 Bft)
09/11/2007 17:00 15,5 C 17 % 1008,4 hPa 0,0 l/m 6,3 km/h (2 Bft) S 0,07 h 0,254 mm 9 W/m -9,3 C 15,5 C 8,9 km/h (2 Bft)
09/11/2007 18:00 14,7 C 17 % 1010,1 hPa 0,0 l/m 7,3 km/h (2 Bft) NO 0,00 h 0,076 mm 0 W/m -10,5 C 14,7 C 11,5 km/h (2 Bft)
09/11/2007 19:00 14,0 C 17 % 1011,3 hPa 0,0 l/m 11,5 km/h (2 Bft) O-NO 0,00 h 0,127 mm 0 W/m -10,5 C 14,0 C 15,9 km/h (3 Bft)
09/11/2007 20:00 13,0 C 19 % 1012,6 hPa 0,0 l/m 11,6 km/h (2 Bft) O-NO 0,00 h 0,152 mm 0 W/m -10,0 C 13,0 C 15,8 km/h (3 Bft)
09/11/2007 21:00 10,6 C 24 % 1014,2 hPa 0,0 l/m 3,5 km/h (1 Bft) N-NE 0,00 h 0,127 mm 0 W/m -9,1 C 10,6 C 5,6 km/h (1 Bft)
09/11/2007 22:00 10,3 C 25 % 1015,5 hPa 0,0 l/m 3,9 km/h (1 Bft) O-NO 0,00 h 0,076 mm 0 W/m -8,6 C 10,2 C 5,8 km/h (2 Bft)
09/11/2007 23:00 10,6 C 31 % 1016,4 hPa 0,0 l/m 9,7 km/h (2 Bft) O-NO 0,00 h 0,076 mm 0 W/m -6,0 C 10,6 C 13,6 km/h (3 Bft)
10/11/2007 00:00 10,9 C 37 % 1017,0 hPa 0,0 l/m 10,7 km/h (2 Bft) O 0,00 h 0,102 mm 0 W/m -3,2 C 10,9 C 15,9 km/h (3 Bft)
10/11/2007 01:00 10,6 C 44 % 1017,6 hPa 0,0 l/m 10,6 km/h (2 Bft) O 0,00 h 0,102 mm 0 W/m -1,1 C 10,6 C 15,5 km/h (3 Bft)
10/11/2007 02:00 10,3 C 49 % 1018,4 hPa 0,0 l/m 10,7 km/h (2 Bft) O 0,00 h 0,076 mm 0 W/m 0,0 C 10,3 C 15,6 km/h (3 Bft)
10/11/2007 03:00 10,3 C 51 % 1018,2 hPa 0,0 l/m 9,9 km/h (2 Bft) O-NO 0,00 h 0,076 mm 0 W/m 0,6 C 10,3 C 14,3 km/h (3 Bft)
10/11/2007 04:00 9,7 C 53 % 1017,8 hPa 0,0 l/m 12,1 km/h (2 Bft) O-NO 0,00 h 0,076 mm 0 W/m 0,7 C 7,9 C 16,1 km/h (3 Bft)
10/11/2007 05:00 9,2 C 56 % 1017,4 hPa 0,0 l/m 12,3 km/h (3 Bft) O-NO 0,00 h 0,076 mm 0 W/m 0,8 C 7,3 C 16,5 km/h (3 Bft)
10/11/2007 06:00 9,1 C 56 % 1017,0 hPa 0,0 l/m 9,4 km/h (2 Bft) O 0,00 h 0,076 mm 0 W/m 0,8 C 7,7 C 12,5 km/h (3 Bft)
10/11/2007 07:00 9,0 C 55 % 1016,5 hPa 0,0 l/m 9,8 km/h (2 Bft) O-NO 0,52 h 0,051 mm 28 W/m 0,5 C 7,5 C 13,0 km/h (3 Bft)
10/11/2007 08:00 10,6 C 50 % 1016,4 hPa 0,0 l/m 4,6 km/h (1 Bft) O-NO 1,00 h 0,051 mm 141 W/m 0,6 C 10,2 C 6,5 km/h (2 Bft)
10/11/2007 09:00 12,9 C 46 % 1016,2 hPa 0,0 l/m 2,0 km/h (1 Bft) NE 1,00 h 0,102 mm 281 W/m 1,7 C 12,9 C 3,8 km/h (1 Bft)
10/11/2007 10:00 13,5 C 43 % 1015,9 hPa 0,0 l/m 5,4 km/h (1 Bft) S-SE 1,00 h 0,152 mm 376 W/m 1,2 C 13,5 C 8,0 km/h (2 Bft)
10/11/2007 11:00 14,3 C 41 % 1015,4 hPa 0,0 l/m 6,4 km/h (2 Bft) S-SE 1,00 h 0,229 mm 455 W/m 1,2 C 14,3 C 10,3 km/h (2 Bft)
10/11/2007 12:00 14,7 C 41 % 1014,2 hPa 0,0 l/m 7,1 km/h (2 Bft) SE 1,00 h 0,279 mm 467 W/m 1,6 C 14,7 C 11,0 km/h (2 Bft)
10/11/2007 13:00 15,3 C 40 % 1013,1 hPa 0,0 l/m 5,4 km/h (1 Bft) S-SE 1,00 h 0,305 mm 443 W/m 1,6 C 15,3 C 9,4 km/h (2 Bft)
10/11/2007 14:00 15,2 C 43 % 1012,5 hPa 0,0 l/m 6,5 km/h (2 Bft) E 1,00 h 0,279 mm 353 W/m 2,6 C 15,2 C 10,3 km/h (2 Bft)
10/11/2007 15:00 14,5 C 45 % 1012,3 hPa 0,0 l/m 3,6 km/h (1 Bft) E 1,00 h 0,229 mm 230 W/m 2,6 C 14,5 C 5,4 km/h (1 Bft)
10/11/2007 16:00 13,0 C 50 % 1012,2 hPa 0,0 l/m 1,4 km/h (1 Bft) E-SE 1,00 h 0,152 mm 87 W/m 2,8 C 13,0 C 3,1 km/h (1 Bft)
10/11/2007 17:00 10,6 C 59 % 1012,4 hPa 0,0 l/m 3,0 km/h (1 Bft) E 0,03 h 0,051 mm 9 W/m 2,9 C 10,6 C 4,4 km/h (1 Bft)
10/11/2007 18:00 9,7 C 61 % 1012,8 hPa 0,0 l/m 1,6 km/h (1 Bft) E 0,00 h 0,025 mm 0 W/m 2,6 C 9,7 C 3,2 km/h (1 Bft)
10/11/2007 19:00 9,0 C 66 % 1013,0 hPa 0,0 l/m 1,5 km/h (1 Bft) NE 0,00 h 0,025 mm 0 W/m 3,1 C 9,0 C 3,2 km/h (1 Bft)
10/11/2007 20:00 8,7 C 71 % 1013,0 hPa 0,0 l/m 2,8 km/h (1 Bft) N 0,00 h 0,025 mm 0 W/m 3,6 C 8,6 C 4,6 km/h (1 Bft)
10/11/2007 21:00 9,3 C 72 % 1013,3 hPa 0,0 l/m 1,2 km/h (1 Bft) O-NO 0,00 h 0,025 mm 0 W/m 4,4 C 9,2 C 2,3 km/h (1 Bft)
10/11/2007 22:00 8,8 C 71 % 1013,5 hPa 0,0 l/m 2,9 km/h (1 Bft) O-NO 0,00 h 0,025 mm 0 W/m 3,9 C 8,8 C 4,6 km/h (1 Bft)
10/11/2007 23:00 8,6 C 72 % 1013,5 hPa 0,0 l/m 3,6 km/h (1 Bft) O-NO 0,00 h 0,025 mm 0 W/m 3,9 C 8,5 C 5,2 km/h (1 Bft)
11/11/2007 00:00 8,3 C 72 % 1013,5 hPa 0,0 l/m 3,3 km/h (1 Bft) NO 0,00 h 0,025 mm 0 W/m 3,5 C 8,2 C 5,5 km/h (1 Bft)
11/11/2007 01:00 8,2 C 71 % 1013,2 hPa 0,0 l/m 4,0 km/h (1 Bft) O-NO 0,00 h 0,025 mm 0 W/m 3,3 C 8,0 C 6,2 km/h (2 Bft)
11/11/2007 02:00 8,4 C 68 % 1012,8 hPa 0,0 l/m 6,3 km/h (2 Bft) O-NO 0,00 h 0,025 mm 0 W/m 2,9 C 7,5 C 8,4 km/h (2 Bft)
11/11/2007 03:00 8,6 C 66 % 1012,6 hPa 0,0 l/m 5,7 km/h (1 Bft) O 0,00 h 0,051 mm 0 W/m 2,7 C 8,0 C 7,5 km/h (2 Bft)
11/11/2007 04:00 9,0 C 65 % 1011,9 hPa 0,0 l/m 4,1 km/h (1 Bft) O-NO 0,00 h 0,051 mm 0 W/m 2,7 C 8,7 C 5,2 km/h (1 Bft)
11/11/2007 05:00 8,5 C 67 % 1011,8 hPa 0,0 l/m 1,9 km/h (1 Bft) O-NO 0,00 h 0,025 mm 0 W/m 2,8 C 8,4 C 3,1 km/h (1 Bft)
11/11/2007 06:00 8,3 C 69 % 1011,3 hPa 0,0 l/m 1,8 km/h (1 Bft) O-NO 0,00 h 0,025 mm 0 W/m 2,9 C 8,3 C 3,2 km/h (1 Bft)
11/11/2007 07:00 8,3 C 70 % 1011,1 hPa 0,0 l/m 1,3 km/h (1 Bft) O-NO 0,00 h 0,000 mm 18 W/m 3,2 C 8,3 C 2,8 km/h (1 Bft)
11/11/2007 08:00 9,0 C 71 % 1011,1 hPa 0,0 l/m 3,7 km/h (1 Bft) NO 0,00 h 0,025 mm 73 W/m 3,9 C 8,9 C 5,7 km/h (1 Bft)
11/11/2007 09:00 10,9 C 72 % 1010,7 hPa 0,0 l/m 1,7 km/h (1 Bft) NO 0,37 h 0,051 mm 169 W/m 6,1 C 10,9 C 3,8 km/h (1 Bft)
11/11/2007 10:00 13,1 C 69 % 1010,3 hPa 0,0 l/m 3,5 km/h (1 Bft) NO 1,00 h 0,102 mm 289 W/m 7,6 C 13,1 C 6,1 km/h (2 Bft)
11/11/2007 11:00 14,3 C 65 % 1010,0 hPa 0,0 l/m 4,2 km/h (1 Bft) E-NE 1,00 h 0,152 mm 368 W/m 7,9 C 14,3 C 6,6 km/h (2 Bft)
11/11/2007 12:00 15,1 C 64 % 1009,1 hPa 0,0 l/m 5,2 km/h (1 Bft) E-SE 0,93 h 0,203 mm 437 W/m 8,4 C 15,1 C 8,5 km/h (2 Bft)
11/11/2007 13:00 15,2 C 66 % 1008,4 hPa 0,0 l/m 5,9 km/h (2 Bft) E-SE 0,73 h 0,254 mm 374 W/m 8,8 C 15,2 C 9,2 km/h (2 Bft)
11/11/2007 14:00 15,0 C 67 % 1007,9 hPa 0,0 l/m 4,2 km/h (1 Bft) E 0,75 h 0,229 mm 291 W/m 8,9 C 15,0 C 7,5 km/h (2 Bft)
11/11/2007 15:00 14,9 C 66 % 1007,4 hPa 0,0 l/m 2,6 km/h (1 Bft) S-SE 1,00 h 0,178 mm 217 W/m 8,6 C 14,9 C 4,9 km/h (1 Bft)
11/11/2007 16:00 14,1 C 66 % 1007,2 hPa 0,0 l/m 0,3 km/h (0 Bft) S-SE 0,87 h 0,127 mm 67 W/m 7,9 C 14,1 C 1,0 km/h (0 Bft)
11/11/2007 17:00 12,0 C 74 % 1006,9 hPa 0,0 l/m 0,7 km/h (0 Bft) S-SE 0,02 h 0,051 mm 8 W/m 7,4 C 12,0 C 1,2 km/h (1 Bft)
11/11/2007 18:00 10,7 C 78 % 1006,7 hPa 0,0 l/m 1,5 km/h (1 Bft) O-SO 0,00 h 0,000 mm 0 W/m 7,0 C 10,7 C 2,3 km/h (1 Bft)
11/11/2007 19:00 10,2 C 81 % 1006,7 hPa 0,0 l/m 3,7 km/h (1 Bft) O-NO 0,00 h 0,025 mm 0 W/m 7,0 C 10,1 C 5,4 km/h (1 Bft)
11/11/2007 20:00 9,3 C 83 % 1006,8 hPa 0,0 l/m 3,7 km/h (1 Bft) NO 0,00 h 0,025 mm 0 W/m 6,5 C 9,2 C 5,8 km/h (2 Bft)
11/11/2007 21:00 9,4 C 82 % 1007,0 hPa 0,0 l/m 4,7 km/h (1 Bft) NO 0,00 h 0,025 mm 0 W/m 6,5 C 9,1 C 6,5 km/h (2 Bft)
11/11/2007 22:00 9,1 C 82 % 1007,0 hPa 0,0 l/m 4,1 km/h (1 Bft) NO 0,00 h 0,025 mm 0 W/m 6,2 C 8,9 C 5,8 km/h (2 Bft)
11/11/2007 23:00 8,8 C 82 % 1007,0 hPa 0,0 l/m 4,6 km/h (1 Bft) O-NO 0,00 h 0,025 mm 0 W/m 5,9 C 8,5 C 6,7 km/h (2 Bft)
Min-Date _ 09/11/07 09/11/07 09/11/07 - 05/11/07 - - - - 09/11/07 09/11/07 05/11/07
_ Min-Heure 05:46 14:04 12:45 - 01:38 - - - - 17:52 06:31 05:12
Minimum _ 7,7 C 14 % 1004,6 hPa - 0,0 km/h (0 Bft) - - - - -11,1 C 6,6 C 0,0 km/h (0 Bft)
Max-Date _ 09/11/07 05/11/07 07/11/07 05/11/07 09/11/07 - 09/11/07 09/11/07 07/11/07 05/11/07 09/11/07 09/11/07
_ Max-Heure 13:25 20:04 09:15 00:00 15:17 - 08:30 13:00 12:29 15:52 13:25 12:10
Maximum _ 21,2 C 89 % 1022,8 hPa 0,0 l/m 37,0 km/h
O-NO (5 Bft)
- 0,03 h 0,533 mm 656 W/m 13,3 C 21,2 C 49,9 km/h
O-SO (6 Bft)
Moyenne _ 12,8 C 64 % 1015,2 hPa #0,0 l/m 5,9 km/h (2 Bft) O-NO #55:49 h #17,782 mm 241 W/m 5,2 C 12,7 C 8,8 km/h (2 Bft)
Roquefort les pins